createdAt,value
2022-09-10T00:02:14.019Z,25.30
2022-09-10T00:04:41.210Z,25.30
2022-09-10T00:07:08.262Z,25.30
2022-09-10T00:09:35.426Z,25.30
2022-09-10T00:12:02.970Z,25.30
2022-09-10T00:14:30.037Z,25.30
2022-09-10T00:16:57.710Z,25.30
2022-09-10T00:19:25.029Z,25.30
2022-09-10T00:21:52.116Z,25.30
2022-09-10T00:24:19.162Z,25.30
2022-09-10T00:26:46.653Z,25.30
2022-09-10T00:29:17.107Z,25.30
2022-09-10T00:31:45.167Z,25.30
2022-09-10T00:34:13.241Z,25.30
2022-09-10T00:36:43.224Z,25.30
2022-09-10T00:39:20.559Z,25.30
2022-09-10T00:41:49.227Z,25.30
2022-09-10T00:44:55.993Z,25.30
2022-09-10T00:47:37.815Z,25.30
2022-09-10T00:50:15.219Z,25.30
2022-09-10T00:52:43.273Z,25.30
2022-09-10T00:55:12.653Z,25.30
2022-09-10T00:57:40.217Z,25.30
2022-09-10T01:00:12.048Z,25.30
2022-09-10T01:02:39.969Z,25.30
2022-09-10T01:05:09.336Z,25.30
2022-09-10T01:07:37.021Z,25.30
2022-09-10T01:10:10.841Z,25.30
2022-09-10T01:13:02.242Z,25.30
2022-09-10T01:15:55.380Z,25.30
2022-09-10T01:18:56.582Z,25.30
2022-09-10T01:22:03.384Z,25.30
2022-09-10T01:24:55.927Z,25.30
2022-09-10T01:27:42.792Z,25.30
2022-09-10T01:30:21.119Z,25.30
2022-09-10T01:33:03.182Z,25.30
2022-09-10T01:35:46.853Z,25.30
2022-09-10T01:38:20.131Z,25.30
2022-09-10T01:40:48.038Z,25.30
2022-09-10T01:43:15.194Z,25.30
2022-09-10T01:46:15.021Z,25.20
2022-09-10T01:49:22.290Z,25.20
2022-09-10T01:52:15.316Z,25.20
2022-09-10T01:55:22.305Z,25.20
2022-09-10T01:58:26.647Z,25.20
2022-09-10T02:01:15.707Z,25.30
2022-09-10T02:03:48.006Z,25.20
2022-09-10T02:06:19.564Z,25.20
2022-09-10T02:08:49.705Z,25.20
2022-09-10T02:11:16.732Z,25.20
2022-09-10T02:13:43.794Z,25.20
2022-09-10T02:16:15.418Z,25.20
2022-09-10T02:18:42.887Z,25.20
2022-09-10T02:21:11.757Z,25.20
2022-09-10T02:23:45.437Z,25.20
2022-09-10T02:26:14.594Z,25.20
2022-09-10T02:28:49.726Z,25.20
2022-09-10T02:31:18.774Z,25.20
2022-09-10T02:33:46.087Z,25.20
2022-09-10T02:36:13.286Z,25.20
2022-09-10T02:38:40.609Z,25.20
2022-09-10T02:41:09.585Z,25.20
2022-09-10T02:43:38.318Z,25.20
2022-09-10T02:46:09.004Z,25.30
2022-09-10T02:48:36.147Z,25.20
2022-09-10T02:51:03.333Z,25.20
2022-09-10T02:53:31.786Z,25.20
2022-09-10T02:55:59.144Z,25.20
2022-09-10T02:58:26.191Z,25.20
2022-09-10T03:00:53.738Z,25.20
2022-09-10T03:03:20.804Z,25.20
2022-09-10T03:05:47.860Z,25.20
2022-09-10T03:08:14.968Z,25.30
2022-09-10T03:10:42.057Z,25.20
2022-09-10T03:13:09.152Z,25.20
2022-09-10T03:15:36.222Z,25.20
2022-09-10T03:18:03.252Z,25.20
2022-09-10T03:20:31.366Z,25.20
2022-09-10T03:22:58.446Z,25.20
2022-09-10T03:25:25.530Z,25.20
2022-09-10T03:27:52.969Z,25.20
2022-09-10T03:30:20.503Z,25.20
2022-09-10T03:32:48.021Z,25.20
2022-09-10T03:35:17.022Z,25.20
2022-09-10T03:37:44.488Z,25.20
2022-09-10T03:40:11.742Z,25.20
2022-09-10T03:42:39.078Z,25.20
2022-09-10T03:45:06.801Z,25.20
2022-09-10T03:47:33.850Z,25.20
2022-09-10T03:50:00.898Z,25.20
2022-09-10T03:52:28.747Z,25.20
2022-09-10T03:54:55.933Z,25.20
2022-09-10T03:57:23.464Z,25.20
2022-09-10T03:59:50.522Z,25.20
2022-09-10T04:02:18.645Z,25.20
2022-09-10T04:04:45.675Z,25.20
2022-09-10T04:07:12.767Z,25.20
2022-09-10T04:09:39.864Z,25.20
2022-09-10T04:12:07.281Z,25.30
2022-09-10T04:14:34.616Z,25.20
2022-09-10T04:17:01.709Z,25.20
2022-09-10T04:19:29.128Z,25.20
2022-09-10T04:21:57.421Z,25.20
2022-09-10T04:24:24.463Z,25.20
2022-09-10T04:26:52.393Z,25.20
2022-09-10T04:29:19.527Z,25.20
2022-09-10T04:31:46.964Z,25.20
2022-09-10T04:34:14.108Z,25.20
2022-09-10T04:36:41.147Z,25.20
2022-09-10T04:39:08.404Z,25.20
2022-09-10T04:41:35.577Z,25.20
2022-09-10T04:44:02.995Z,25.20
2022-09-10T04:46:30.027Z,25.20
2022-09-10T04:48:57.813Z,25.20
2022-09-10T04:51:25.209Z,25.30
2022-09-10T04:53:52.665Z,25.20
2022-09-10T04:56:21.047Z,25.30
2022-09-10T04:58:48.701Z,25.20
2022-09-10T05:01:15.947Z,25.20
2022-09-10T05:03:43.023Z,25.30
2022-09-10T05:06:10.192Z,25.30
2022-09-10T05:08:37.651Z,25.30
2022-09-10T05:11:05.330Z,25.20
2022-09-10T05:13:32.589Z,25.20
2022-09-10T05:16:00.213Z,25.20
2022-09-10T05:18:27.608Z,25.10
2022-09-10T05:20:54.866Z,25.00
2022-09-10T05:23:22.073Z,24.80
2022-09-10T05:25:49.232Z,24.70
2022-09-10T05:28:20.996Z,24.40
2022-09-10T05:30:51.558Z,24.10
2022-09-10T05:33:19.054Z,23.70
2022-09-10T05:35:51.836Z,23.30
2022-09-10T05:38:19.428Z,22.90
2022-09-10T05:40:47.178Z,22.60
2022-09-10T05:43:14.171Z,22.20
2022-09-10T05:45:42.028Z,21.80
2022-09-10T05:48:09.184Z,21.50
2022-09-10T05:50:36.268Z,21.20
2022-09-10T05:53:03.321Z,20.90
2022-09-10T05:55:31.420Z,20.80
2022-09-10T05:57:58.720Z,20.60
2022-09-10T06:00:26.377Z,20.50
2022-09-10T06:02:53.597Z,20.30
2022-09-10T06:05:24.110Z,20.20
2022-09-10T06:07:51.620Z,20.10
2022-09-10T06:10:20.175Z,20.00
2022-09-10T06:12:48.416Z,19.90
2022-09-10T06:15:16.417Z,19.80
2022-09-10T06:17:43.450Z,19.70
2022-09-10T06:20:14.211Z,19.70
2022-09-10T06:22:41.335Z,19.60
2022-09-10T06:25:08.975Z,19.50
2022-09-10T06:27:36.037Z,19.50
2022-09-10T06:30:03.171Z,19.40
2022-09-10T06:32:31.608Z,19.40
2022-09-10T06:34:58.665Z,19.30
2022-09-10T06:37:27.115Z,19.30
2022-09-10T06:39:54.244Z,19.20
2022-09-10T06:42:21.310Z,19.10
2022-09-10T06:44:48.605Z,19.10
2022-09-10T06:48:06.800Z,19.00
2022-09-10T06:50:02.659Z,19.00
2022-09-10T06:52:29.961Z,18.90
2022-09-10T06:54:57.003Z,18.90
2022-09-10T06:57:27.186Z,18.80
2022-09-10T06:59:54.214Z,18.80
2022-09-10T07:02:21.269Z,18.80
2022-09-10T07:04:48.351Z,18.70
2022-09-10T07:07:15.461Z,18.70
2022-09-10T07:09:43.391Z,18.60
2022-09-10T07:12:10.414Z,18.50
2022-09-10T07:14:37.487Z,18.40
2022-09-10T07:17:04.546Z,18.40
2022-09-10T07:19:33.073Z,18.30
2022-09-10T07:22:00.101Z,18.20
2022-09-10T07:24:27.339Z,18.20
2022-09-10T07:26:54.396Z,18.20
2022-09-10T07:29:21.657Z,18.10
2022-09-10T07:31:48.761Z,18.10
2022-09-10T07:34:15.916Z,18.10
2022-09-10T07:36:42.970Z,18.10
2022-09-10T07:39:11.325Z,18.10
2022-09-10T07:41:38.439Z,18.00
2022-09-10T07:44:05.678Z,18.00
2022-09-10T07:46:32.735Z,18.00
2022-09-10T07:49:01.038Z,18.00
2022-09-10T07:51:30.810Z,18.00
2022-09-10T07:53:59.532Z,18.00
2022-09-10T07:56:27.168Z,17.90
2022-09-10T07:58:54.977Z,18.00
2022-09-10T08:01:22.522Z,18.00
2022-09-10T08:03:49.937Z,17.90
2022-09-10T08:06:17.598Z,17.90
2022-09-10T08:08:44.633Z,17.90
2022-09-10T08:11:17.583Z,18.00
2022-09-10T08:13:46.797Z,18.00
2022-09-10T08:16:19.166Z,18.00
2022-09-10T08:18:51.517Z,18.00
2022-09-10T08:21:19.513Z,18.00
2022-09-10T08:23:51.308Z,18.00
2022-09-10T08:26:18.801Z,18.00
2022-09-10T08:28:47.502Z,18.00
2022-09-10T08:31:14.732Z,18.00
2022-09-10T08:33:41.890Z,18.10
2022-09-10T08:36:12.139Z,18.10
2022-09-10T08:38:40.787Z,18.10
2022-09-10T08:41:34.096Z,18.10
2022-09-10T08:44:13.608Z,18.10
2022-09-10T08:46:56.839Z,18.10
2022-09-10T08:49:40.860Z,18.20
2022-09-10T08:52:29.963Z,18.10
2022-09-10T08:55:24.217Z,18.10
2022-09-10T08:57:57.989Z,18.10
2022-09-10T09:00:28.941Z,18.10
2022-09-10T09:03:10.287Z,18.10
2022-09-10T09:05:49.677Z,18.10
2022-09-10T09:08:21.952Z,18.10
2022-09-10T09:10:52.796Z,18.10
2022-09-10T09:13:55.903Z,18.10
2022-09-10T09:16:43.798Z,18.10
2022-09-10T09:19:35.026Z,18.10
2022-09-10T09:22:15.973Z,18.10
2022-09-10T09:25:07.300Z,18.10
2022-09-10T09:27:38.042Z,18.10
2022-09-10T09:30:06.321Z,18.10
2022-09-10T09:32:41.600Z,18.10
2022-09-10T09:35:32.618Z,18.10
2022-09-10T09:38:25.227Z,18.10
2022-09-10T09:40:58.992Z,18.10
2022-09-10T09:44:02.687Z,18.10
2022-09-10T09:46:29.813Z,18.10
2022-09-10T09:48:59.220Z,18.00
2022-09-10T09:51:30.734Z,18.00
2022-09-10T09:54:39.414Z,18.00
2022-09-10T09:56:52.414Z,18.10
2022-09-10T09:59:31.334Z,18.10
2022-09-10T10:02:16.445Z,18.10
2022-09-10T10:04:55.474Z,18.10
2022-09-10T10:07:31.797Z,18.10
2022-09-10T10:10:01.266Z,18.10
2022-09-10T10:12:33.302Z,18.10
2022-09-10T10:15:02.813Z,18.00
2022-09-10T10:17:35.714Z,18.00
2022-09-10T10:20:10.273Z,18.00
2022-09-10T10:22:39.349Z,18.10
2022-09-10T10:25:38.498Z,18.10
2022-09-10T10:28:24.176Z,18.10
2022-09-10T10:30:53.773Z,18.10
2022-09-10T10:33:31.611Z,18.10
2022-09-10T10:36:18.989Z,18.10
2022-09-10T10:39:04.381Z,18.10
2022-09-10T10:41:58.824Z,18.10
2022-09-10T10:44:50.273Z,18.10
2022-09-10T10:47:41.053Z,18.20
2022-09-10T10:50:52.201Z,18.20
2022-09-10T10:53:39.040Z,18.20
2022-09-10T10:56:42.909Z,18.20
2022-09-10T10:59:45.403Z,18.30
2022-09-10T11:02:22.826Z,18.20
2022-09-10T11:04:52.092Z,18.30
2022-09-10T11:07:31.806Z,18.20
2022-09-10T11:10:15.340Z,18.30
2022-09-10T11:12:50.814Z,18.30
2022-09-10T11:15:40.265Z,18.30
2022-09-10T11:18:33.560Z,18.30
2022-09-10T11:21:22.159Z,18.30
2022-09-10T11:24:17.324Z,18.30
2022-09-10T11:27:00.859Z,18.30
2022-09-10T11:29:52.639Z,18.40
2022-09-10T11:32:40.365Z,18.40
2022-09-10T11:35:28.483Z,18.30
2022-09-10T11:38:20.712Z,18.40
2022-09-10T11:41:24.870Z,18.40
2022-09-10T11:44:36.247Z,18.40
2022-09-10T11:47:23.811Z,18.40
2022-09-10T11:50:07.196Z,18.40
2022-09-10T11:52:35.217Z,18.40
2022-09-10T11:55:04.693Z,18.40
2022-09-10T11:58:11.768Z,18.40
2022-09-10T12:00:57.353Z,18.40
2022-09-10T12:03:53.870Z,18.40
2022-09-10T12:06:33.544Z,18.50
2022-09-10T12:09:13.427Z,18.40
2022-09-10T12:12:14.120Z,18.40
2022-09-10T12:14:41.680Z,18.40
2022-09-10T12:17:33.901Z,18.40
2022-09-10T12:20:02.917Z,18.40
2022-09-10T12:22:37.430Z,18.50
2022-09-10T12:25:08.809Z,18.50
2022-09-10T12:27:49.187Z,18.50
2022-09-10T12:30:56.024Z,18.50
2022-09-10T12:34:02.835Z,18.60
2022-09-10T12:37:10.840Z,18.60
2022-09-10T12:39:38.154Z,18.60
2022-09-10T12:42:30.598Z,18.60
2022-09-10T12:44:57.799Z,18.70
2022-09-10T12:47:45.093Z,18.70
2022-09-10T12:50:33.716Z,18.80
2022-09-10T12:53:17.618Z,18.80
2022-09-10T12:55:59.706Z,18.80
2022-09-10T12:59:00.635Z,18.80
2022-09-10T13:01:46.443Z,18.90
2022-09-10T13:04:30.683Z,18.90
2022-09-10T13:07:05.833Z,18.90
2022-09-10T13:09:40.016Z,18.80
2022-09-10T13:12:24.143Z,18.90
2022-09-10T13:14:54.644Z,18.90
2022-09-10T13:17:40.998Z,18.90
2022-09-10T13:20:29.679Z,19.00
2022-09-10T13:23:21.805Z,19.00
2022-09-10T13:25:52.703Z,19.00
2022-09-10T13:29:00.838Z,19.00
2022-09-10T13:31:38.821Z,19.00
2022-09-10T13:34:41.014Z,19.00
2022-09-10T13:37:47.825Z,19.00
2022-09-10T13:40:49.023Z,19.00
2022-09-10T13:43:51.639Z,19.00
2022-09-10T13:46:31.294Z,19.00
2022-09-10T13:49:13.109Z,19.00
2022-09-10T13:51:57.082Z,19.00
2022-09-10T13:54:33.302Z,19.00
2022-09-10T13:57:22.560Z,19.00
2022-09-10T13:59:52.378Z,19.00
2022-09-10T14:02:21.547Z,19.10
2022-09-10T14:04:49.039Z,19.00
2022-09-10T14:07:21.905Z,19.00
2022-09-10T14:09:58.529Z,19.00
2022-09-10T14:12:29.588Z,19.00
2022-09-10T14:15:00.420Z,19.00
2022-09-10T14:17:34.317Z,19.00
2022-09-10T14:20:15.347Z,19.10
2022-09-10T14:22:42.506Z,19.10
2022-09-10T14:25:31.830Z,19.00
2022-09-10T14:28:20.851Z,19.10
2022-09-10T14:30:49.455Z,19.00
2022-09-10T14:33:33.025Z,19.10
2022-09-10T14:36:19.300Z,19.10
2022-09-10T14:39:13.482Z,19.10
2022-09-10T14:41:40.881Z,19.10
2022-09-10T14:44:29.868Z,19.10
2022-09-10T14:47:21.516Z,19.10
2022-09-10T14:49:49.064Z,19.00
2022-09-10T14:52:16.196Z,19.00
2022-09-10T14:54:43.266Z,19.00
2022-09-10T14:57:15.624Z,19.00
2022-09-10T14:59:45.267Z,19.00
2022-09-10T15:02:17.483Z,19.00
2022-09-10T15:04:45.294Z,19.10
2022-09-10T15:07:13.788Z,19.20
2022-09-10T15:09:41.326Z,19.30
2022-09-10T15:12:28.026Z,19.40
2022-09-10T15:14:55.450Z,19.50
2022-09-10T15:17:22.475Z,19.70
2022-09-10T15:19:50.080Z,19.80
2022-09-10T15:22:24.976Z,19.90
2022-09-10T15:25:09.241Z,20.10
2022-09-10T15:27:37.169Z,20.20
2022-09-10T15:30:05.465Z,20.40
2022-09-10T15:32:32.591Z,20.50
2022-09-10T15:34:59.941Z,20.70
2022-09-10T15:37:27.252Z,20.80
2022-09-10T15:39:54.810Z,20.90
2022-09-10T15:42:22.083Z,21.00
2022-09-10T15:44:49.159Z,21.10
2022-09-10T15:47:16.204Z,21.30
2022-09-10T15:49:43.264Z,21.40
2022-09-10T15:52:10.370Z,21.50
2022-09-10T15:54:37.454Z,21.60
2022-09-10T15:57:04.524Z,21.70
2022-09-10T15:59:31.566Z,21.80
2022-09-10T16:01:58.636Z,21.90
2022-09-10T16:04:26.173Z,22.00
2022-09-10T16:06:53.227Z,22.10
2022-09-10T16:09:20.652Z,22.20
2022-09-10T16:11:48.337Z,22.30
2022-09-10T16:14:18.795Z,22.40
2022-09-10T16:16:47.277Z,22.50
2022-09-10T16:19:14.516Z,22.60
2022-09-10T16:21:41.683Z,22.70
2022-09-10T16:24:10.129Z,22.80
2022-09-10T16:26:39.932Z,22.90
2022-09-10T16:29:16.289Z,23.00
2022-09-10T16:31:46.131Z,23.00
2022-09-10T16:34:17.653Z,23.10
2022-09-10T16:36:45.852Z,23.20
2022-09-10T16:39:15.572Z,23.30
2022-09-10T16:41:45.032Z,23.30
2022-09-10T16:44:14.849Z,23.40
2022-09-10T16:46:42.563Z,23.40
2022-09-10T16:49:14.507Z,23.50
2022-09-10T16:51:43.106Z,23.50
2022-09-10T16:54:10.992Z,23.60
2022-09-10T16:56:40.242Z,23.60
2022-09-10T16:59:10.077Z,23.70
2022-09-10T17:01:37.952Z,23.70
2022-09-10T17:04:07.653Z,23.80
2022-09-10T17:06:35.958Z,23.80
2022-09-10T17:09:03.480Z,23.90
2022-09-10T17:11:32.233Z,23.90
2022-09-10T17:14:01.563Z,23.90
2022-09-10T17:16:34.316Z,24.00
2022-09-10T17:19:09.943Z,24.00
2022-09-10T17:21:39.328Z,24.10
2022-09-10T17:24:08.992Z,24.10
2022-09-10T17:26:40.271Z,24.10
2022-09-10T17:29:10.046Z,24.10
2022-09-10T17:31:37.250Z,24.20
2022-09-10T17:34:04.895Z,24.20
2022-09-10T17:36:33.389Z,24.30
2022-09-10T17:39:03.475Z,24.30
2022-09-10T17:41:31.114Z,24.30
2022-09-10T17:44:01.562Z,24.30
2022-09-10T17:46:31.315Z,24.40
2022-09-10T17:49:02.581Z,24.40
2022-09-10T17:51:31.441Z,24.40
2022-09-10T17:53:59.242Z,24.40
2022-09-10T17:56:27.494Z,24.40
2022-09-10T17:58:59.918Z,24.50
2022-09-10T18:01:29.828Z,24.50
2022-09-10T18:03:57.071Z,24.50
2022-09-10T18:06:25.359Z,24.50
2022-09-10T18:08:53.131Z,24.50
2022-09-10T18:11:23.248Z,24.60
2022-09-10T18:13:52.259Z,24.60
2022-09-10T18:16:22.169Z,24.60
2022-09-10T18:18:55.595Z,24.60
2022-09-10T18:21:31.921Z,24.60
2022-09-10T18:24:01.410Z,24.60
2022-09-10T18:26:31.144Z,24.60
2022-09-10T18:29:02.061Z,24.60
2022-09-10T18:31:35.154Z,24.70
2022-09-10T18:34:02.948Z,24.70
2022-09-10T18:36:31.621Z,24.70
2022-09-10T18:39:02.211Z,24.70
2022-09-10T18:41:34.876Z,24.70
2022-09-10T18:44:04.162Z,24.70
2022-09-10T18:46:33.382Z,24.70
2022-09-10T18:49:01.178Z,24.80
2022-09-10T18:51:30.320Z,24.70
2022-09-10T18:54:00.155Z,24.70
2022-09-10T18:56:30.652Z,24.80
2022-09-10T18:59:01.012Z,24.80
2022-09-10T19:01:30.039Z,24.80
2022-09-10T19:04:01.293Z,24.80
2022-09-10T19:06:31.306Z,24.80
2022-09-10T19:09:01.425Z,24.80
2022-09-10T19:11:35.384Z,24.80
2022-09-10T19:14:04.969Z,24.70
2022-09-10T19:16:35.129Z,24.80
2022-09-10T19:19:04.529Z,24.80
2022-09-10T19:21:33.023Z,24.80
2022-09-10T19:24:03.877Z,24.80
2022-09-10T19:26:34.563Z,24.70
2022-09-10T19:29:02.493Z,24.80
2022-09-10T19:31:31.834Z,24.80
2022-09-10T19:34:01.691Z,24.80
2022-09-10T19:36:31.780Z,24.80
2022-09-10T19:38:59.781Z,24.80
2022-09-10T19:41:27.182Z,24.80
2022-09-10T19:43:55.660Z,24.80
2022-09-10T19:46:31.189Z,24.80
2022-09-10T19:48:59.920Z,24.80
2022-09-10T19:51:32.115Z,24.80
2022-09-10T19:54:00.660Z,24.80
2022-09-10T19:56:32.342Z,24.80
2022-09-10T19:59:02.648Z,24.80
2022-09-10T20:01:32.450Z,24.80
2022-09-10T20:04:05.546Z,24.80
2022-09-10T20:06:33.988Z,24.80
2022-09-10T20:09:02.514Z,24.80
2022-09-10T20:11:32.625Z,24.80
2022-09-10T20:14:02.736Z,24.80
2022-09-10T20:16:30.270Z,24.80
2022-09-10T20:18:57.897Z,24.80
2022-09-10T20:21:28.082Z,24.80
2022-09-10T20:23:56.458Z,24.80
2022-09-10T20:26:28.946Z,24.80
2022-09-10T20:29:02.237Z,24.80
2022-09-10T20:31:31.558Z,24.90
2022-09-10T20:34:00.965Z,24.90
2022-09-10T20:36:28.704Z,24.90
2022-09-10T20:38:56.666Z,24.90
2022-09-10T20:41:24.665Z,24.80
2022-09-10T20:43:52.989Z,24.80
2022-09-10T20:46:25.158Z,24.80
2022-09-10T20:48:52.845Z,24.80
2022-09-10T20:51:20.730Z,24.80
2022-09-10T20:53:48.336Z,24.80
2022-09-10T20:56:19.290Z,24.80
2022-09-10T20:58:47.548Z,24.80
2022-09-10T21:01:19.941Z,24.80
2022-09-10T21:03:49.369Z,24.80
2022-09-10T21:06:19.740Z,24.80
2022-09-10T21:08:48.261Z,24.80
2022-09-10T21:11:17.724Z,24.80
2022-09-10T21:13:47.393Z,24.80
2022-09-10T21:16:25.886Z,24.80
2022-09-10T21:18:55.254Z,24.80
2022-09-10T21:21:25.809Z,24.80
2022-09-10T21:23:58.868Z,24.80
2022-09-10T21:26:28.562Z,24.80
2022-09-10T21:29:00.379Z,24.80
2022-09-10T21:31:28.776Z,24.80
2022-09-10T21:34:01.941Z,24.80
2022-09-10T21:36:29.966Z,24.80
2022-09-10T21:38:59.674Z,24.80
2022-09-10T21:41:35.634Z,24.80
2022-09-10T21:44:05.123Z,24.80
2022-09-10T21:46:32.587Z,24.80
2022-09-10T21:48:59.998Z,24.80
2022-09-10T21:51:27.275Z,24.80
2022-09-10T21:53:55.905Z,24.80
2022-09-10T21:56:24.996Z,24.80
2022-09-10T21:58:53.806Z,24.80
2022-09-10T22:01:24.458Z,24.80
2022-09-10T22:03:55.208Z,24.70
2022-09-10T22:06:25.180Z,24.80
2022-09-10T22:08:55.290Z,24.80
2022-09-10T22:11:24.774Z,24.80
2022-09-10T22:13:54.445Z,24.80
2022-09-10T22:16:23.016Z,24.80
2022-09-10T22:18:51.046Z,24.80
2022-09-10T22:21:18.496Z,24.80
2022-09-10T22:23:45.561Z,24.80
2022-09-10T22:26:15.466Z,24.80
2022-09-10T22:28:43.668Z,24.80
2022-09-10T22:31:15.401Z,24.80
2022-09-10T22:33:45.138Z,24.80
2022-09-10T22:36:21.559Z,24.80
2022-09-10T22:38:51.125Z,24.80
2022-09-10T22:41:19.146Z,24.80
2022-09-10T22:43:46.484Z,24.80
2022-09-10T22:46:13.922Z,24.80
2022-09-10T22:48:42.729Z,24.80
2022-09-10T22:51:15.250Z,24.80
2022-09-10T22:53:43.480Z,24.80
2022-09-10T22:56:12.142Z,24.80
2022-09-10T22:58:39.913Z,24.80
2022-09-10T23:01:10.044Z,24.80
2022-09-10T23:03:38.019Z,24.80
2022-09-10T23:06:11.987Z,24.80
2022-09-10T23:08:44.271Z,24.80
2022-09-10T23:11:15.371Z,24.70
2022-09-10T23:13:44.801Z,24.80
2022-09-10T23:16:18.879Z,24.80
2022-09-10T23:18:54.954Z,24.80
2022-09-10T23:21:26.957Z,24.80
2022-09-10T23:23:56.551Z,24.80
2022-09-10T23:26:24.406Z,24.80
2022-09-10T23:28:52.073Z,24.70
2022-09-10T23:31:21.992Z,24.80
2022-09-10T23:34:05.055Z,24.70
2022-09-10T23:36:34.827Z,24.70
2022-09-10T23:39:04.588Z,24.80
2022-09-10T23:41:31.664Z,24.70
2022-09-10T23:43:59.218Z,24.70
2022-09-10T23:46:27.053Z,24.70
2022-09-10T23:48:55.168Z,24.70
2022-09-10T23:51:22.739Z,24.70
2022-09-10T23:53:50.372Z,24.70
2022-09-10T23:56:19.796Z,24.70
2022-09-10T23:58:47.767Z,24.70
